Terminal Aerodrome Forecast
Issued by NWS

Home | Current Version | Previous Version | Text Only | Print | Product List | Glossary On
Versions: 1 2 3 4 5 6 7 8 9 10 11 12 13 14 15 16 17 18
999
FTUS43 KDTX 292320
TAFMBS
TAF
KMBS 292320Z 3000/3024 04013KT P6SM BKN080 OVC120
     FM301000 05012KT 6SM -SN BKN040 OVC080
     FM301300 06012G18KT P6SM -RASN SCT025 OVC040
     FM301500 07014G23KT 5SM -RA SCT012 OVC025
     FM301800 06013G23KT 3SM RA SCT008 OVC012
     FM302200 05013KT 3SM -RA BR OVC006=

USA.gov is the U.S. government's official web portal to all federal, state and local government web resources and services.